createdAt,value
2019-01-25T07:41:35.691Z,74.49
2019-01-25T07:42:35.921Z,73.90
2019-01-25T07:43:35.732Z,74.07
2019-01-25T07:44:35.612Z,76.65
2019-01-25T07:45:35.614Z,78.87
2019-01-25T07:46:35.565Z,79.19
2019-01-25T07:47:35.550Z,81.52
2019-01-25T07:48:35.704Z,82.71
2019-01-25T07:49:35.567Z,83.27
2019-01-25T07:50:35.521Z,84.05
2019-01-25T07:51:35.493Z,85.24
2019-01-25T07:52:35.569Z,86.77
2019-01-25T07:53:35.487Z,86.06
2019-01-25T07:54:35.505Z,83.64
2019-01-25T07:55:35.466Z,80.72
2019-01-25T07:56:35.494Z,80.69
2019-01-25T07:57:35.499Z,82.09
2019-01-25T07:58:35.424Z,83.17
2019-01-25T07:59:35.420Z,83.94
2019-01-25T08:00:35.389Z,85.61
2019-01-25T08:01:35.515Z,85.16
2019-01-25T08:02:35.405Z,85.09
2019-01-25T08:03:35.369Z,86.06
2019-01-25T08:04:35.381Z,83.72
2019-01-25T08:05:35.328Z,82.22
2019-01-25T08:06:35.445Z,81.66
2019-01-25T08:07:36.342Z,81.32
2019-01-25T08:08:35.301Z,82.54
2019-01-25T08:09:35.332Z,84.36
2019-01-25T08:10:35.359Z,85.65
2019-01-25T08:11:35.270Z,86.07
2019-01-25T08:12:35.340Z,87.33
2019-01-25T08:13:35.237Z,87.85
2019-01-25T08:14:35.300Z,88.27
2019-01-25T08:15:35.253Z,87.50
2019-01-25T08:16:35.204Z,86.55
2019-01-25T08:17:35.211Z,86.45
2019-01-25T08:18:35.237Z,86.70
2019-01-25T08:19:35.212Z,86.62
2019-01-25T08:20:35.160Z,85.78
2019-01-25T08:21:36.122Z,85.81
2019-01-25T08:22:35.205Z,82.98
2019-01-25T08:23:35.188Z,80.78
2019-01-25T08:24:35.184Z,77.86
2019-01-25T08:25:35.127Z,76.16
2019-01-25T08:26:35.138Z,75.12
2019-01-25T08:27:35.134Z,74.11
2019-01-25T08:28:35.070Z,75.57
2019-01-25T08:29:35.117Z,77.41
2019-01-25T08:30:35.088Z,79.15
2019-01-25T08:31:35.074Z,81.59
2019-01-25T08:32:35.081Z,82.53
2019-01-25T08:33:36.094Z,81.90
2019-01-25T08:34:35.067Z,82.67
2019-01-25T08:35:35.068Z,84.22
2019-01-25T08:36:34.996Z,84.42
2019-01-25T08:37:35.841Z,86.10
2019-01-25T08:40:13.137Z,82.63
2019-01-25T08:41:15.549Z,80.64
2019-01-25T08:42:15.603Z,78.52
2019-01-25T08:43:12.527Z,76.78
2019-01-25T08:44:12.567Z,75.40
2019-01-25T08:45:12.523Z,74.77
2019-01-25T08:47:28.467Z,74.84
2019-01-25T08:48:29.241Z,77.31
2019-01-25T08:49:28.305Z,77.58
2019-01-25T08:50:28.194Z,76.37
2019-01-25T08:51:28.149Z,76.02
2019-01-25T08:52:28.129Z,74.43
2019-01-25T08:53:28.190Z,73.39
2019-01-25T08:54:28.177Z,73.18
2019-01-25T08:55:28.104Z,73.73
2019-01-25T08:56:28.089Z,74.88
2019-01-25T08:57:28.126Z,73.80
2019-01-25T08:58:28.147Z,72.97
2019-01-25T08:59:28.059Z,73.39
2019-01-25T09:00:28.076Z,73.80
2019-01-25T09:01:28.029Z,73.70
2019-01-25T09:02:28.012Z,72.63
2019-01-25T09:03:43.470Z,71.90
2019-01-25T09:04:50.479Z,72.83
2019-01-25T09:05:28.894Z,73.18
2019-01-25T09:06:27.978Z,72.94
2019-01-25T09:07:27.965Z,73.04
2019-01-25T09:08:27.946Z,71.76
2019-01-25T09:09:34.873Z,72.28
2019-01-25T09:10:27.954Z,71.18
2019-01-25T09:11:27.945Z,71.11
2019-01-25T09:12:27.903Z,71.11
2019-01-25T09:13:27.894Z,70.14
2019-01-25T09:14:27.882Z,70.86
2019-01-25T09:15:27.899Z,72.38
2019-01-25T09:16:27.863Z,74.11
2019-01-25T09:17:27.888Z,76.23
2019-01-25T09:18:27.861Z,76.16
2019-01-25T09:19:27.827Z,75.40
2019-01-25T09:20:27.859Z,74.32
2019-01-25T09:21:27.823Z,74.08
2019-01-25T09:22:27.795Z,72.77
2019-01-25T09:23:27.796Z,70.59
2019-01-25T09:24:27.772Z,70.87
2019-01-25T09:25:27.786Z,70.97
2019-01-25T09:26:27.748Z,70.48
2019-01-25T09:27:28.648Z,71.00
2019-01-25T09:28:36.098Z,71.42
2019-01-25T09:29:35.549Z,71.86
2019-01-25T09:30:29.568Z,71.59
2019-01-25T09:31:28.262Z,70.97
2019-01-25T09:32:28.292Z,71.73
2019-01-25T09:33:27.676Z,72.07
2019-01-25T09:34:28.372Z,72.04
2019-01-25T09:35:27.683Z,71.49
2019-01-25T09:36:27.691Z,71.03
2019-01-25T09:37:27.628Z,72.21
2019-01-25T09:38:27.763Z,73.83
2019-01-25T09:39:27.610Z,75.57
2019-01-25T09:40:27.636Z,77.96
2019-01-25T09:41:27.597Z,77.06
2019-01-25T09:42:31.252Z,76.12
2019-01-25T09:43:27.567Z,75.32
2019-01-25T09:44:27.552Z,76.33
2019-01-25T09:45:27.622Z,75.36
2019-01-25T09:46:27.530Z,74.84
2019-01-25T09:47:27.518Z,75.46
2019-01-25T09:48:27.507Z,75.15
2019-01-25T09:49:27.499Z,74.74
2019-01-25T09:50:27.510Z,74.84
2019-01-25T09:51:27.540Z,74.53
2019-01-25T09:52:27.465Z,74.15
2019-01-25T09:53:27.465Z,72.42
2019-01-25T09:54:27.450Z,72.04
2019-01-25T09:55:27.478Z,72.35
2019-01-25T09:56:27.435Z,72.69
2019-01-25T09:57:27.497Z,73.66
2019-01-25T09:58:27.413Z,73.87
2019-01-25T09:59:27.436Z,74.29
2019-01-25T10:00:27.403Z,74.74
2019-01-25T10:01:27.370Z,74.70
2019-01-25T10:02:27.421Z,74.95
2019-01-25T10:03:27.342Z,74.98
2019-01-25T10:04:27.366Z,75.60
2019-01-25T10:05:27.354Z,75.71
2019-01-25T10:06:27.373Z,75.81
2019-01-25T10:07:27.365Z,75.92
2019-01-25T10:08:27.322Z,76.12
2019-01-25T10:09:27.275Z,75.81
2019-01-25T10:10:27.421Z,76.23
2019-01-25T10:11:27.259Z,76.12
2019-01-25T10:12:27.283Z,76.64
2019-01-25T10:13:27.231Z,76.12
2019-01-25T10:14:27.221Z,76.02
2019-01-25T10:15:27.250Z,76.33
2019-01-25T10:16:27.206Z,76.54
2019-01-25T10:17:27.187Z,76.64
2019-01-25T10:18:27.177Z,75.26
2019-01-25T10:19:27.166Z,76.09
2019-01-25T10:20:27.181Z,75.67
2019-01-25T10:21:27.191Z,75.71
2019-01-25T10:22:27.135Z,76.12
2019-01-25T10:23:27.120Z,76.75
2019-01-25T10:24:27.111Z,76.29
2019-01-25T10:25:27.282Z,76.02
2019-01-25T10:26:27.116Z,77.06
2019-01-25T10:27:27.089Z,77.06
2019-01-25T10:28:27.087Z,75.98
2019-01-25T10:29:27.904Z,76.19
2019-01-25T10:30:27.071Z,76.33
2019-01-25T10:31:27.041Z,77.23
2019-01-25T10:32:27.057Z,78.63
2019-01-25T10:33:27.022Z,79.14
2019-01-25T10:34:27.002Z,79.35
2019-01-25T10:35:27.123Z,78.80
2019-01-25T10:36:26.980Z,78.97
2019-01-25T10:37:26.974Z,77.61
2019-01-25T10:38:27.858Z,78.66
2019-01-25T10:39:30.157Z,77.69
2019-01-25T10:40:26.963Z,76.09
2019-01-25T10:41:28.956Z,75.78
2019-01-25T10:42:26.998Z,75.95
2019-01-25T10:43:26.935Z,75.98
2019-01-25T10:44:26.893Z,75.81
2019-01-25T10:45:26.911Z,75.09
2019-01-25T10:46:26.895Z,76.23
2019-01-25T10:47:26.859Z,76.43
2019-01-25T10:48:54.409Z,76.75
2019-01-25T10:49:26.946Z,77.16
2019-01-25T10:50:27.306Z,76.95
2019-01-25T10:51:27.143Z,76.19
2019-01-25T10:52:26.884Z,76.26
2019-01-25T10:53:26.795Z,75.78
2019-01-25T10:54:26.782Z,76.09
2019-01-25T10:55:26.807Z,76.51
2019-01-25T10:56:26.866Z,76.64
2019-01-25T10:57:26.766Z,76.43
2019-01-25T10:58:33.512Z,77.06
2019-01-25T10:59:47.815Z,77.58
2019-01-25T11:31:37.618Z,75.02
